createdAt,value
2019-04-05T00:02:18.525Z,99228.85
2019-04-05T00:04:47.223Z,99228.12
2019-04-05T00:07:15.881Z,99237.59
2019-04-05T00:09:44.546Z,99245.81
2019-04-05T00:12:13.303Z,99241.89
2019-04-05T00:14:41.995Z,99243.81
2019-04-05T00:17:10.655Z,99242.98
2019-04-05T00:19:39.338Z,99240.95
2019-04-05T00:22:07.992Z,99243.43
2019-04-05T00:24:36.663Z,99245.61
2019-04-05T00:27:05.344Z,99246.59
2019-04-05T00:29:34.007Z,99253.91
2019-04-05T00:32:02.705Z,99262.53
2019-04-05T00:34:31.361Z,99253.59
2019-04-05T00:37:00.020Z,99249.55
2019-04-05T00:39:28.718Z,99263.06
2019-04-05T00:41:57.409Z,99261.73
2019-04-05T00:44:26.069Z,99255.63
2019-04-05T00:46:54.817Z,99256.72
2019-04-05T00:49:23.493Z,99248.16
2019-04-05T00:51:52.296Z,99252.20
2019-04-05T00:54:21.055Z,99255.41
2019-04-05T00:56:49.728Z,99261.51
2019-04-05T00:59:18.484Z,99266.79
2019-04-05T01:01:47.297Z,99277.13
2019-04-05T01:04:15.976Z,99280.06
2019-04-05T01:06:44.710Z,99280.56
2019-04-05T01:09:13.387Z,99283.05
2019-04-05T01:11:42.129Z,99288.55
2019-04-05T01:14:11.558Z,99299.72
2019-04-05T01:16:40.588Z,99298.89
2019-04-05T01:19:09.614Z,99303.22
2019-04-05T01:21:43.016Z,99309.61
2019-04-05T01:24:13.641Z,99313.50
2019-04-05T01:26:45.605Z,99322.25
2019-04-05T01:29:15.459Z,99333.67
2019-04-05T01:31:44.617Z,99328.33
2019-04-05T01:34:14.310Z,99329.34
2019-04-05T01:36:43.982Z,99336.25
2019-04-05T01:39:13.084Z,99338.59
2019-04-05T01:41:43.612Z,99335.72
2019-04-05T01:44:13.773Z,99335.45
2019-04-05T01:46:43.648Z,99332.73
2019-04-05T01:49:13.450Z,99331.41
2019-04-05T01:51:43.810Z,99329.30
2019-04-05T01:54:14.030Z,99330.09
2019-04-05T01:56:43.755Z,99333.38
2019-04-05T01:59:12.516Z,99334.44
2019-04-05T02:01:41.767Z,99349.11
2019-04-05T02:04:11.419Z,99344.17
2019-04-05T02:06:41.239Z,99348.92
2019-04-05T02:09:12.900Z,99347.94
2019-04-05T02:11:42.453Z,99350.77
2019-04-05T02:14:11.845Z,99341.83
2019-04-05T02:16:41.142Z,99348.73
2019-04-05T02:19:10.900Z,99328.63
2019-04-05T02:21:40.429Z,99330.33
2019-04-05T02:24:09.323Z,99329.23
2019-04-05T02:26:38.346Z,99327.16
2019-04-05T02:29:07.265Z,99325.38
2019-04-05T02:31:35.904Z,99323.84
2019-04-05T02:34:05.834Z,99324.29
2019-04-05T02:36:34.913Z,99327.16
2019-04-05T02:39:05.279Z,99316.52
2019-04-05T02:41:34.244Z,99326.73
2019-04-05T02:44:03.559Z,99323.58
2019-04-05T02:46:32.996Z,99326.29
2019-04-05T02:49:05.257Z,99329.08
2019-04-05T02:51:36.680Z,99320.63
2019-04-05T02:54:05.503Z,99327.80
2019-04-05T02:56:36.822Z,99331.27
2019-04-05T02:59:07.647Z,99327.60
2019-04-05T03:01:36.984Z,99335.00
2019-04-05T03:04:06.747Z,99331.61
2019-04-05T03:06:36.163Z,99326.84
2019-04-05T03:09:07.510Z,99331.18
2019-04-05T03:11:39.113Z,99325.90
2019-04-05T03:14:10.910Z,99319.86
2019-04-05T03:16:44.159Z,99310.13
2019-04-05T03:19:16.039Z,99318.39
2019-04-05T03:21:51.387Z,99327.94
2019-04-05T03:24:24.356Z,99317.14
2019-04-05T03:27:00.147Z,99317.44
2019-04-05T03:29:29.568Z,99316.41
2019-04-05T03:31:59.358Z,99315.29
2019-04-05T03:34:29.189Z,99322.34
2019-04-05T03:36:58.846Z,99327.02
2019-04-05T03:39:29.016Z,99325.66
2019-04-05T03:41:57.922Z,99332.76
2019-04-05T03:44:28.234Z,99317.93
2019-04-05T03:46:58.069Z,99322.34
2019-04-05T03:49:27.886Z,99329.89
2019-04-05T03:51:56.842Z,99327.32
2019-04-05T03:54:25.887Z,99340.00
2019-04-05T03:56:54.976Z,99338.09
2019-04-05T03:59:24.199Z,99343.02
2019-04-05T04:01:53.243Z,99334.63
2019-04-05T04:04:22.092Z,99343.88
2019-04-05T04:06:50.874Z,99350.78
2019-04-05T04:09:20.034Z,99345.95
2019-04-05T04:11:49.203Z,99341.32
2019-04-05T04:14:19.746Z,99339.51
2019-04-05T04:16:48.705Z,99343.70
2019-04-05T04:19:17.830Z,99351.89
2019-04-05T04:22:11.734Z,99360.34
2019-04-05T04:24:42.577Z,99364.91
2019-04-05T04:27:13.471Z,99362.72
2019-04-05T04:29:43.406Z,99363.89
2019-04-05T04:32:13.489Z,99363.44
2019-04-05T04:34:43.277Z,99366.80
2019-04-05T04:37:13.503Z,99357.70
2019-04-05T04:39:42.917Z,99360.34
2019-04-05T04:42:12.590Z,99358.00
2019-04-05T04:44:42.525Z,99365.62
2019-04-05T04:47:25.709Z,99366.64
2019-04-05T04:49:42.943Z,99367.95
2019-04-05T04:52:12.067Z,99359.31
2019-04-05T04:54:42.123Z,99361.35
2019-04-05T04:57:11.676Z,99361.58
2019-04-05T04:59:41.053Z,99369.28
2019-04-05T05:02:10.211Z,99370.67
2019-04-05T05:04:38.934Z,99375.81
2019-04-05T05:07:07.831Z,99386.22
2019-04-05T05:09:38.445Z,99382.19
2019-04-05T05:12:08.113Z,99386.16
2019-04-05T05:14:37.582Z,99381.69
2019-04-05T05:17:07.603Z,99386.52
2019-04-05T05:19:37.450Z,99386.83
2019-04-05T05:22:07.462Z,99394.45
2019-04-05T05:24:37.110Z,99399.81
2019-04-05T05:27:05.892Z,99400.38
2019-04-05T05:29:35.048Z,99401.70
2019-04-05T05:32:05.491Z,99405.80
2019-04-05T05:34:34.919Z,99410.94
2019-04-05T05:37:04.766Z,99415.05
2019-04-05T05:39:35.513Z,99403.92
2019-04-05T05:42:07.755Z,99404.27
2019-04-05T05:44:37.227Z,99404.07
2019-04-05T05:47:06.323Z,99404.07
2019-04-05T05:49:36.010Z,99402.94
2019-04-05T05:52:05.626Z,99403.23
2019-04-05T05:54:35.282Z,99407.20
2019-04-05T05:57:04.320Z,99402.64
2019-04-05T05:59:34.120Z,99405.87
2019-04-05T06:02:03.608Z,99398.75
2019-04-05T06:04:34.600Z,99400.59
2019-04-05T06:07:07.192Z,99404.09
2019-04-05T06:09:36.791Z,99410.14
2019-04-05T06:12:06.009Z,99406.91
2019-04-05T06:14:35.454Z,99405.87
2019-04-05T06:17:04.662Z,99407.54
2019-04-05T06:19:34.429Z,99407.54
2019-04-05T06:22:04.140Z,99410.99
2019-04-05T06:24:34.720Z,99406.87
2019-04-05T06:27:03.821Z,99409.78
2019-04-05T06:29:33.659Z,99414.66
2019-04-05T06:32:03.337Z,99413.64
2019-04-05T06:34:33.070Z,99420.44
2019-04-05T06:37:20.103Z,99422.81
2019-04-05T06:39:49.497Z,99430.59
2019-04-05T06:42:20.725Z,99434.64
2019-04-05T06:44:50.444Z,99439.55
2019-04-05T06:47:22.000Z,99433.81
2019-04-05T06:49:55.278Z,99422.22
2019-04-05T06:52:23.770Z,99433.39
2019-04-05T06:54:53.819Z,99433.31
2019-04-05T06:57:22.983Z,99431.91
2019-04-05T06:59:58.743Z,99441.01
2019-04-05T07:02:28.129Z,99436.59
2019-04-05T07:04:57.143Z,99437.77
2019-04-05T07:07:26.232Z,99447.02
2019-04-05T07:09:55.904Z,99457.09
2019-04-05T07:12:24.641Z,99457.45
2019-04-05T07:14:58.130Z,99454.09
2019-04-05T07:17:28.293Z,99454.39
2019-04-05T07:19:56.981Z,99450.27
2019-04-05T07:22:36.987Z,99454.88
2019-04-05T07:24:57.082Z,99446.16
2019-04-05T07:27:26.114Z,99454.07
2019-04-05T07:29:57.992Z,99453.62
2019-04-05T07:32:27.570Z,99444.81
2019-04-05T07:34:57.728Z,99449.28
2019-04-05T07:37:26.771Z,99442.17
2019-04-05T07:39:56.234Z,99443.50
2019-04-05T07:42:24.990Z,99445.75
2019-04-05T07:44:53.970Z,99452.14
2019-04-05T07:47:32.204Z,99449.83
2019-04-05T07:50:01.601Z,99442.04
2019-04-05T07:52:30.592Z,99429.98
2019-04-05T07:54:59.612Z,99433.38
2019-04-05T07:57:28.324Z,99433.86
2019-04-05T07:59:57.460Z,99440.38
2019-04-05T08:02:32.304Z,99437.95
2019-04-05T08:05:00.966Z,99437.67
2019-04-05T08:07:33.611Z,99438.95
2019-04-05T08:10:03.838Z,99443.92
2019-04-05T08:12:33.625Z,99443.03
2019-04-05T08:15:05.493Z,99453.91
2019-04-05T08:17:34.229Z,99450.90
2019-04-05T08:20:03.278Z,99452.06
2019-04-05T08:22:32.537Z,99446.78
2019-04-05T08:25:01.714Z,99457.63
2019-04-05T08:27:31.615Z,99452.28
2019-04-05T08:30:00.648Z,99454.91
2019-04-05T08:32:29.733Z,99457.02
2019-04-05T08:35:00.122Z,99453.74
2019-04-05T08:37:28.810Z,99457.41
2019-04-05T08:39:57.500Z,99455.69
2019-04-05T08:42:26.179Z,99452.19
2019-04-05T08:44:54.880Z,99458.25
2019-04-05T08:47:23.570Z,99455.92
2019-04-05T08:49:52.607Z,99465.55
2019-04-05T08:52:21.756Z,99462.38
2019-04-05T08:54:50.760Z,99461.91
2019-04-05T08:57:20.162Z,99464.39
2019-04-05T08:59:49.931Z,99472.23
2019-04-05T09:02:19.273Z,99467.06
2019-04-05T09:04:48.610Z,99467.95
2019-04-05T09:07:17.925Z,99471.56
2019-04-05T09:09:47.508Z,99469.16
2019-04-05T09:12:17.150Z,99470.13
2019-04-05T09:14:54.301Z,99466.67
2019-04-05T09:17:24.708Z,99475.52
2019-04-05T09:19:54.384Z,99469.45
2019-04-05T09:22:24.182Z,99469.84
2019-04-05T09:24:53.904Z,99467.73
2019-04-05T09:27:23.180Z,99473.09
2019-04-05T09:29:51.869Z,99473.16
2019-04-05T09:32:20.538Z,99472.60
2019-04-05T09:34:49.223Z,99472.20
2019-04-05T09:37:17.888Z,99471.27
2019-04-05T09:39:46.901Z,99465.41
2019-04-05T09:42:15.577Z,99462.69
2019-04-05T09:44:44.932Z,99468.87
2019-04-05T09:47:14.074Z,99468.21
2019-04-05T09:49:42.771Z,99472.36
2019-04-05T09:52:11.439Z,99472.48
2019-04-05T09:54:40.407Z,99472.43
2019-04-05T09:57:09.082Z,99473.41
2019-04-05T09:59:37.748Z,99469.92
2019-04-05T10:02:07.143Z,99473.36
2019-04-05T10:04:35.963Z,99470.31
2019-04-05T10:07:04.774Z,99463.13
2019-04-05T10:09:33.474Z,99466.73
2019-04-05T10:12:02.570Z,99466.38
2019-04-05T10:14:31.570Z,99462.24
2019-04-05T10:17:00.598Z,99467.55
2019-04-05T10:19:29.677Z,99469.95
2019-04-05T10:21:58.385Z,99471.89
2019-04-05T10:24:27.428Z,99471.48
2019-04-05T10:26:56.444Z,99475.45
2019-04-05T10:29:25.131Z,99478.92
2019-04-05T10:31:54.072Z,99471.38
2019-04-05T10:34:22.735Z,99476.34
2019-04-05T10:36:51.425Z,99473.08
2019-04-05T10:39:20.608Z,99481.28
2019-04-05T10:42:02.396Z,99482.39
2019-04-05T10:44:20.349Z,99490.48
2019-04-05T10:46:49.485Z,99483.44
2019-04-05T10:49:18.152Z,99488.72
2019-04-05T10:51:50.259Z,99497.52
2019-04-05T10:54:20.168Z,99494.29
2019-04-05T10:56:48.827Z,99493.41
2019-04-05T10:59:17.498Z,99497.47
2019-04-05T11:01:46.205Z,99496.95
2019-04-05T11:04:16.821Z,99498.50
2019-04-05T11:06:45.930Z,99497.73
2019-04-05T11:09:14.626Z,99502.95
2019-04-05T11:11:43.753Z,99503.56
2019-04-05T11:14:14.266Z,99502.25
2019-04-05T11:16:43.420Z,99500.00
2019-04-05T11:19:12.755Z,99491.59
2019-04-05T11:21:41.433Z,99494.71
2019-04-05T11:24:10.493Z,99488.41
2019-04-05T11:26:39.537Z,99497.80
2019-04-05T11:29:09.001Z,99492.91
2019-04-05T11:31:41.863Z,99493.00
2019-04-05T11:34:10.683Z,99507.78
2019-04-05T11:36:40.606Z,99501.33
2019-04-05T11:39:10.459Z,99500.70
2019-04-05T11:41:40.867Z,99498.22
2019-04-05T11:44:10.675Z,99501.78
2019-04-05T11:46:39.826Z,99500.70
2019-04-05T11:49:10.723Z,99500.00
2019-04-05T11:51:43.244Z,99507.84
2019-04-05T11:54:13.808Z,99514.11
2019-04-05T11:56:43.622Z,99504.33
2019-04-05T11:59:15.667Z,99502.69
2019-04-05T12:01:58.994Z,99504.42
2019-04-05T12:04:27.721Z,99501.00
2019-04-05T12:06:56.397Z,99501.12
2019-04-05T12:09:25.208Z,99503.59
2019-04-05T12:11:56.961Z,99498.64
2019-04-05T12:14:30.473Z,99496.34
2019-04-05T12:16:57.757Z,99492.69
2019-04-05T12:19:26.434Z,99486.47
2019-04-05T12:21:55.127Z,99487.00
2019-04-05T12:24:24.174Z,99490.56
2019-04-05T12:26:53.580Z,99488.11
2019-04-05T12:29:22.584Z,99488.16
2019-04-05T12:31:53.432Z,99487.89
2019-04-05T12:34:22.388Z,99484.03
2019-04-05T12:36:52.586Z,99483.81
2019-04-05T12:39:21.490Z,99493.28
2019-04-05T12:41:50.890Z,99491.63
2019-04-05T12:44:19.952Z,99483.20
2019-04-05T12:46:48.637Z,99486.56
2019-04-05T12:49:17.295Z,99480.59
2019-04-05T12:51:46.186Z,99482.06
2019-04-05T12:54:16.750Z,99484.92
2019-04-05T12:56:46.791Z,99479.80
2019-04-05T12:59:15.812Z,99481.84
2019-04-05T13:01:45.717Z,99490.16
2019-04-05T13:04:16.012Z,99482.13
2019-04-05T13:06:45.567Z,99479.04
2019-04-05T13:09:15.600Z,99483.63
2019-04-05T13:11:45.386Z,99481.27
2019-04-05T13:14:15.432Z,99485.27
2019-04-05T13:16:44.367Z,99480.98
2019-04-05T13:19:13.732Z,99487.38
2019-04-05T13:21:43.641Z,99487.45
2019-04-05T13:24:13.518Z,99484.00
2019-04-05T13:26:42.825Z,99477.08
2019-04-05T13:29:12.236Z,99474.56
2019-04-05T13:31:41.550Z,99469.73
2019-04-05T13:34:10.248Z,99473.47
2019-04-05T13:36:40.533Z,99474.16
2019-04-05T13:39:09.917Z,99474.77
2019-04-05T13:41:38.595Z,99478.91
2019-04-05T13:44:07.700Z,99471.08
2019-04-05T13:46:39.004Z,99473.88
2019-04-05T13:49:10.327Z,99466.47
2019-04-05T13:51:41.619Z,99470.77
2019-04-05T13:54:11.013Z,99462.57
2019-04-05T13:56:39.539Z,99459.00
2019-04-05T13:59:09.441Z,99460.03
2019-04-05T14:01:39.283Z,99453.05
2019-04-05T14:04:08.358Z,99458.63
2019-04-05T14:06:38.082Z,99448.48
2019-04-05T14:09:10.391Z,99439.86
2019-04-05T14:11:40.289Z,99436.25
2019-04-05T14:14:12.192Z,99428.82
2019-04-05T14:16:42.919Z,99435.88
2019-04-05T14:19:12.257Z,99436.16
2019-04-05T14:21:47.431Z,99432.13
2019-04-05T14:24:13.136Z,99433.66
2019-04-05T14:26:43.641Z,99435.56
2019-04-05T14:29:12.174Z,99431.47
2019-04-05T14:31:41.205Z,99427.78
2019-04-05T14:34:10.185Z,99429.99
2019-04-05T14:36:39.261Z,99431.38
2019-04-05T14:39:09.737Z,99432.60
2019-04-05T14:41:39.226Z,99430.19
2019-04-05T14:44:09.167Z,99425.23
2019-04-05T14:46:38.577Z,99430.47
2019-04-05T14:49:07.295Z,99425.64
2019-04-05T14:51:36.053Z,99435.10
2019-04-05T14:54:05.014Z,99430.40
2019-04-05T14:56:33.674Z,99427.53
2019-04-05T14:59:02.653Z,99420.20
2019-04-05T15:01:31.412Z,99423.58
2019-04-05T15:04:00.147Z,99423.16
2019-04-05T15:06:31.163Z,99424.49
2019-04-05T15:09:02.075Z,99429.13
2019-04-05T15:11:30.225Z,99428.78
2019-04-05T15:13:59.610Z,99433.38
2019-04-05T15:16:29.173Z,99427.95
2019-04-05T15:18:58.439Z,99432.55
2019-04-05T15:21:27.434Z,99442.12
2019-04-05T15:23:57.227Z,99445.44
2019-04-05T15:26:26.241Z,99441.23
2019-04-05T15:28:55.891Z,99444.91
2019-04-05T15:31:26.500Z,99439.05
2019-04-05T15:33:57.805Z,99440.88
2019-04-05T15:36:26.854Z,99440.67
2019-04-05T15:38:55.551Z,99439.16
2019-04-05T15:41:24.487Z,99437.87
2019-04-05T15:43:53.489Z,99444.59
2019-04-05T15:46:22.179Z,99445.03
2019-04-05T15:48:51.811Z,99455.11
2019-04-05T15:51:25.849Z,99453.05
2019-04-05T15:54:01.134Z,99458.05
2019-04-05T15:56:34.150Z,99456.79
2019-04-05T15:59:05.044Z,99455.36
2019-04-05T16:01:35.547Z,99459.34
2019-04-05T16:04:05.691Z,99454.09
2019-04-05T16:06:35.312Z,99456.15
2019-04-05T16:09:06.966Z,99450.95
2019-04-05T16:11:36.825Z,99457.44
2019-04-05T16:14:07.084Z,99457.28
2019-04-05T16:16:37.204Z,99458.14
2019-04-05T16:19:08.810Z,99461.28
2019-04-05T16:21:39.595Z,99460.74
2019-04-05T16:24:10.368Z,99462.07
2019-04-05T16:26:41.648Z,99462.33
2019-04-05T16:29:11.472Z,99463.16
2019-04-05T16:31:42.376Z,99464.06
2019-04-05T16:34:12.364Z,99459.31
2019-04-05T16:36:43.252Z,99456.62
2019-04-05T16:39:16.523Z,99456.71
2019-04-05T16:41:46.812Z,99462.63
2019-04-05T16:44:18.575Z,99463.53
2019-04-05T16:46:50.298Z,99456.31
2019-04-05T16:49:22.406Z,99461.11
2019-04-05T16:51:54.123Z,99462.56
2019-04-05T16:54:24.807Z,99464.73
2019-04-05T16:56:55.246Z,99468.53
2019-04-05T16:59:27.495Z,99472.94
2019-04-05T17:01:57.471Z,99470.66
2019-04-05T17:04:30.343Z,99463.64
2019-04-05T17:07:00.233Z,99469.66
2019-04-05T17:09:29.521Z,99462.15
2019-04-05T17:11:59.352Z,99468.88
2019-04-05T17:14:28.424Z,99465.25
2019-04-05T17:16:58.018Z,99464.48
2019-04-05T17:19:27.271Z,99462.57
2019-04-05T17:21:57.515Z,99464.91
2019-04-05T17:24:27.275Z,99469.30
2019-04-05T17:26:56.320Z,99474.08
2019-04-05T17:29:25.250Z,99458.63
2019-04-05T17:31:56.235Z,99457.42
2019-04-05T17:34:26.284Z,99465.63
2019-04-05T17:36:55.718Z,99467.50
2019-04-05T17:39:25.659Z,99467.56
2019-04-05T17:41:54.318Z,99470.08
2019-04-05T17:44:22.992Z,99471.66
2019-04-05T17:46:51.673Z,99474.31
2019-04-05T17:49:20.333Z,99473.97
2019-04-05T17:51:49.078Z,99480.69
2019-04-05T17:54:17.752Z,99487.44
2019-04-05T17:56:46.412Z,99482.02
2019-04-05T17:59:15.913Z,99487.88
2019-04-05T18:01:44.588Z,99488.95
2019-04-05T18:04:13.249Z,99490.41
2019-04-05T18:06:41.905Z,99492.81
2019-04-05T18:09:10.676Z,99497.68
2019-04-05T18:11:39.353Z,99497.45
2019-04-05T18:14:08.028Z,99501.10
2019-04-05T18:16:36.691Z,99505.71
2019-04-05T18:19:05.526Z,99504.33
2019-04-05T18:21:34.190Z,99504.45
2019-04-05T18:24:02.877Z,99511.70
2019-04-05T18:26:31.550Z,99507.02
2019-04-05T18:29:00.244Z,99508.70
2019-04-05T18:31:28.908Z,99515.61
2019-04-05T18:33:57.594Z,99512.76
2019-04-05T18:36:26.252Z,99514.09
2019-04-05T18:38:54.909Z,99518.59
2019-04-05T18:41:23.588Z,99515.09
2019-04-05T18:43:52.303Z,99526.13
2019-04-05T18:46:20.957Z,99524.74
2019-04-05T18:48:49.611Z,99521.00
2019-04-05T18:51:18.293Z,99524.75
2019-04-05T18:53:46.945Z,99530.70
2019-04-05T18:56:15.895Z,99526.04
2019-04-05T18:58:44.556Z,99528.39
2019-04-05T19:01:13.242Z,99535.09
2019-04-05T19:03:41.902Z,99535.49
2019-04-05T19:06:10.561Z,99538.88
2019-04-05T19:08:40.163Z,99534.60
2019-04-05T19:11:08.893Z,99537.48
2019-04-05T19:13:37.549Z,99534.84
2019-04-05T19:16:06.334Z,99539.11
2019-04-05T19:18:35.152Z,99535.07
2019-04-05T19:21:04.151Z,99518.02
2019-04-05T19:23:32.823Z,99521.07
2019-04-05T19:26:01.501Z,99525.44
2019-04-05T19:28:30.220Z,99523.33
2019-04-05T19:48:36.509Z,99522.05
2019-04-05T19:51:05.996Z,99526.27
2019-04-05T19:53:35.717Z,99521.07
2019-04-05T19:56:05.425Z,99523.03
2019-04-05T19:58:35.235Z,99521.41
2019-04-05T20:01:04.946Z,99522.17
2019-04-05T20:03:34.336Z,99527.70
2019-04-05T20:06:04.187Z,99520.02
2019-04-05T20:08:33.826Z,99524.81
2019-04-05T20:11:03.669Z,99527.16
2019-04-05T20:13:33.005Z,99521.87
2019-04-05T20:16:02.027Z,99523.33
2019-04-05T20:18:31.000Z,99519.59
2019-04-05T20:20:59.965Z,99506.84
2019-04-05T20:23:29.439Z,99518.77
2019-04-05T20:25:58.803Z,99526.70
2019-04-05T20:28:28.962Z,99520.05
2019-04-05T20:30:57.701Z,99523.20
2019-04-05T20:33:26.676Z,99523.72
2019-04-05T20:35:55.365Z,99527.99
2019-04-05T20:38:24.073Z,99530.91
2019-04-05T20:40:54.418Z,99531.14
2019-04-05T20:43:25.223Z,99529.81
2019-04-05T20:45:55.174Z,99529.48
2019-04-05T20:48:23.867Z,99531.60
2019-04-05T20:50:52.570Z,99525.55
2019-04-05T20:53:21.239Z,99525.78
2019-04-05T20:55:49.916Z,99528.02
2019-04-05T20:58:21.397Z,99536.13
2019-04-05T21:00:50.398Z,99541.36
2019-04-05T21:03:20.310Z,99532.72
2019-04-05T21:05:50.018Z,99537.29
2019-04-05T21:08:19.759Z,99533.19
2019-04-05T21:10:49.471Z,99535.77
2019-04-05T21:13:19.288Z,99531.95
2019-04-05T21:15:48.690Z,99532.48
2019-04-05T21:18:17.746Z,99531.39
2019-04-05T21:20:47.643Z,99530.93
2019-04-05T21:23:17.244Z,99540.05
2019-04-05T21:25:45.981Z,99544.55
2019-04-05T21:28:15.635Z,99531.06
2019-04-05T21:30:44.328Z,99541.95
2019-04-05T21:33:13.000Z,99543.97
2019-04-05T21:35:42.074Z,99534.31
2019-04-05T21:38:11.053Z,99540.34
2019-04-05T21:40:39.715Z,99538.28
2019-04-05T21:43:08.745Z,99542.55
2019-04-05T21:45:37.427Z,99547.48
2019-04-05T21:48:06.096Z,99545.94
2019-04-05T21:50:35.164Z,99545.14
2019-04-05T21:53:03.824Z,99546.63
2019-04-05T21:55:32.494Z,99557.22
2019-04-05T21:58:01.187Z,99553.55
2019-04-05T22:00:42.187Z,99557.98
2019-04-05T22:03:10.891Z,99564.23
2019-04-05T22:05:39.555Z,99570.33
2019-04-05T22:08:08.561Z,99568.73
2019-04-05T22:10:38.603Z,99573.05
2019-04-05T22:13:07.674Z,99573.84
2019-04-05T22:15:36.340Z,99570.55
2019-04-05T22:18:06.302Z,99569.50
2019-04-05T22:20:35.332Z,99566.58
2019-04-05T22:23:04.977Z,99569.53
2019-04-05T22:25:34.322Z,99564.73
2019-04-05T22:28:03.011Z,99565.48
2019-04-05T22:30:31.723Z,99559.84
2019-04-05T22:33:00.675Z,99555.58
2019-04-05T22:35:29.369Z,99561.46
2019-04-05T22:37:58.059Z,99556.44
2019-04-05T22:40:26.749Z,99555.00
2019-04-05T22:42:55.732Z,99565.63
2019-04-05T22:45:25.006Z,99566.08
2019-04-05T22:47:53.695Z,99554.43
2019-04-05T22:50:22.388Z,99551.03
2019-04-05T22:52:52.298Z,99551.03
2019-04-05T22:55:20.966Z,99547.18
2019-04-05T22:57:49.650Z,99542.52
2019-04-05T23:00:18.494Z,99550.53
2019-04-05T23:02:47.243Z,99547.24
2019-04-05T23:05:15.916Z,99545.03
2019-04-05T23:07:44.604Z,99537.20
2019-04-05T23:10:14.118Z,99534.16
2019-04-05T23:12:42.794Z,99534.00
2019-04-05T23:15:11.914Z,99536.41
2019-04-05T23:17:41.525Z,99537.67
2019-04-05T23:20:10.935Z,99538.06
2019-04-05T23:22:40.518Z,99542.33
2019-04-05T23:25:21.228Z,99536.92
2019-04-05T23:27:40.897Z,99533.98
2019-04-05T23:30:10.068Z,99538.89
2019-04-05T23:32:38.754Z,99543.14
2019-04-05T23:35:07.945Z,99536.80
2019-04-05T23:37:36.608Z,99540.42
2019-04-05T23:40:06.447Z,99544.11
2019-04-05T23:42:35.417Z,99543.41
2019-04-05T23:45:04.519Z,99546.92
2019-04-05T23:47:33.585Z,99547.34
2019-04-05T23:50:02.275Z,99546.39
2019-04-05T23:52:31.265Z,99543.27
2019-04-05T23:55:00.211Z,99543.95
2019-04-05T23:57:29.343Z,99543.36
2019-04-05T23:59:58.934Z,99548.48
